createdAt,value
2019-01-23T00:01:29.889Z,96781.72
2019-01-23T00:04:34.344Z,96772.52
2019-01-23T00:07:38.787Z,96768.13
2019-01-23T00:10:43.557Z,96771.65
2019-01-23T00:13:48.288Z,96756.02
2019-01-23T00:16:53.024Z,96761.49
2019-01-23T00:19:57.471Z,96749.91
2019-01-23T00:23:02.176Z,96745.94
2019-01-23T00:26:06.906Z,96742.23
2019-01-23T00:29:11.355Z,96738.62
2019-01-23T00:32:15.798Z,96734.29
2019-01-23T00:35:20.247Z,96725.63
2019-01-23T00:38:24.679Z,96723.75
2019-01-23T00:41:29.368Z,96712.05
2019-01-23T00:44:34.164Z,96705.48
2019-01-23T00:47:38.607Z,96710.88
2019-01-23T00:50:43.322Z,96713.62
2019-01-23T00:53:48.046Z,96711.59
2019-01-23T00:56:52.487Z,96704.44
2019-01-23T00:59:56.937Z,96695.91
2019-01-23T01:03:01.450Z,96699.91
2019-01-23T01:06:06.361Z,96705.86
2019-01-23T01:09:11.045Z,96701.86
2019-01-23T01:12:15.495Z,96698.62
2019-01-23T01:15:20.350Z,96695.23
2019-01-23T01:18:25.301Z,96683.33
2019-01-23T01:21:29.751Z,96687.17
2019-01-23T01:24:34.202Z,96678.78
2019-01-23T01:27:38.958Z,96680.55
2019-01-23T01:30:43.405Z,96674.11
2019-01-23T01:33:48.117Z,96679.65
2019-01-23T01:36:52.866Z,96661.66
2019-01-23T01:39:57.577Z,96658.00
2019-01-23T01:43:02.022Z,96650.73
2019-01-23T01:46:06.476Z,96660.61
2019-01-23T01:49:11.275Z,96649.09
2019-01-23T01:52:15.987Z,96643.78
2019-01-23T01:55:20.512Z,96643.64
2019-01-23T01:58:24.953Z,96637.52
2019-01-23T02:01:29.401Z,96633.14
2019-01-23T02:04:34.089Z,96636.81
2019-01-23T02:07:38.540Z,96634.45
2019-01-23T02:10:42.992Z,96628.68
2019-01-23T02:13:47.438Z,96622.84
2019-01-23T02:16:52.204Z,96614.96
2019-01-23T02:19:56.926Z,96607.88
2019-01-23T02:23:01.367Z,96608.34
2019-01-23T02:26:06.081Z,96608.64
2019-01-23T02:29:10.515Z,96601.05
2019-01-23T02:32:15.240Z,96604.13
2019-01-23T02:35:19.978Z,96591.52
2019-01-23T02:38:24.414Z,96581.45
2019-01-23T02:41:29.136Z,96583.41
2019-01-23T02:44:33.851Z,96571.23
2019-01-23T02:47:38.370Z,96571.73
2019-01-23T02:50:43.107Z,96564.22
2019-01-23T02:53:47.552Z,96565.41
2019-01-23T02:56:52.005Z,96564.06
2019-01-23T02:59:56.790Z,96556.41
2019-01-23T03:03:02.003Z,96551.14
2019-01-23T03:06:06.561Z,96542.80
2019-01-23T03:09:10.986Z,96534.87
2019-01-23T03:12:15.706Z,96531.69
2019-01-23T03:15:20.748Z,96533.48
2019-01-23T03:18:25.480Z,96523.88
2019-01-23T03:21:29.929Z,96523.84
2019-01-23T03:24:34.379Z,96525.37
2019-01-23T03:27:39.157Z,96517.73
2019-01-23T03:30:43.600Z,96512.90
2019-01-23T03:33:48.433Z,96510.44
2019-01-23T03:36:52.885Z,96514.09
2019-01-23T03:39:57.566Z,96512.60
2019-01-23T03:43:02.018Z,96508.86
2019-01-23T03:46:06.926Z,96500.74
2019-01-23T03:49:11.373Z,96506.62
2019-01-23T03:52:15.833Z,96501.42
2019-01-23T03:55:20.731Z,96500.23
2019-01-23T03:58:25.190Z,96502.36
2019-01-23T04:01:29.649Z,96498.58
2019-01-23T04:04:34.083Z,96494.23
2019-01-23T04:07:38.532Z,96497.52
2019-01-23T04:10:42.979Z,96486.46
2019-01-23T04:13:47.447Z,96484.77
2019-01-23T04:16:52.199Z,96481.72
2019-01-23T04:19:56.632Z,96481.31
2019-01-23T04:23:01.088Z,96477.04
2019-01-23T04:26:05.602Z,96478.69
2019-01-23T04:29:10.058Z,96476.89
2019-01-23T04:32:14.820Z,96472.78
2019-01-23T04:35:19.438Z,96466.91
2019-01-23T04:38:23.882Z,96468.16
2019-01-23T04:41:28.599Z,96473.06
2019-01-23T04:44:33.335Z,96471.69
2019-01-23T04:47:37.789Z,96460.53
2019-01-23T04:50:56.151Z,96456.10
2019-01-23T04:54:01.242Z,96448.30
2019-01-23T04:57:05.683Z,96450.63
2019-01-23T05:00:14.856Z,96447.09
2019-01-23T05:03:19.633Z,96440.53
2019-01-23T05:06:24.369Z,96432.86
2019-01-23T05:09:29.094Z,96430.47
2019-01-23T05:12:33.550Z,96437.09
2019-01-23T05:15:38.014Z,96438.98
2019-01-23T05:18:42.773Z,96438.16
2019-01-23T05:21:47.214Z,96430.81
2019-01-23T05:24:51.931Z,96429.15
2019-01-23T05:27:56.387Z,96431.20
2019-01-23T05:31:01.093Z,96431.11
2019-01-23T05:34:05.604Z,96435.13
2019-01-23T05:37:10.049Z,96433.27
2019-01-23T05:40:15.280Z,96425.23
2019-01-23T05:43:19.740Z,96427.44
2019-01-23T05:46:24.181Z,96423.12
2019-01-23T05:49:28.957Z,96421.28
2019-01-23T05:52:33.400Z,96425.18
2019-01-23T05:55:37.856Z,96418.83
2019-01-23T05:58:42.641Z,96418.98
2019-01-23T06:01:47.216Z,96410.66
2019-01-23T06:04:51.999Z,96409.38
2019-01-23T06:07:56.449Z,96409.33
2019-01-23T06:11:01.258Z,96414.90
2019-01-23T06:14:06.500Z,96412.63
2019-01-23T06:17:11.233Z,96411.13
2019-01-23T06:20:21.317Z,96409.30
2019-01-23T06:23:26.016Z,96417.63
2019-01-23T06:26:30.472Z,96407.48
2019-01-23T06:29:35.272Z,96406.98
2019-01-23T06:32:39.783Z,96406.10
2019-01-23T06:35:44.231Z,96403.86
2019-01-23T06:38:48.949Z,96405.70
2019-01-23T06:41:53.681Z,96407.52
2019-01-23T06:44:58.410Z,96407.21
2019-01-23T06:48:02.850Z,96408.48
2019-01-23T06:51:07.568Z,96399.86
2019-01-23T06:54:12.039Z,96396.55
2019-01-23T06:57:16.535Z,96396.45
2019-01-23T07:00:23.600Z,96398.34
2019-01-23T07:03:28.038Z,96395.45
2019-01-23T07:06:32.752Z,96395.29
2019-01-23T07:09:37.195Z,96397.90
2019-01-23T07:12:41.659Z,96394.65
2019-01-23T07:15:46.438Z,96397.20
2019-01-23T07:18:51.169Z,96396.70
2019-01-23T07:21:55.898Z,96393.64
2019-01-23T07:25:00.354Z,96388.91
2019-01-23T07:28:04.863Z,96387.48
2019-01-23T07:31:09.593Z,96390.00
2019-01-23T07:34:14.053Z,96388.18
2019-01-23T07:37:18.507Z,96394.63
2019-01-23T07:40:23.260Z,96393.63
2019-01-23T07:43:27.704Z,96390.22
2019-01-23T07:46:32.158Z,96392.02
2019-01-23T07:49:36.937Z,96391.69
2019-01-23T07:52:41.971Z,96391.75
2019-01-23T07:55:46.424Z,96388.91
2019-01-23T07:58:50.873Z,96389.08
2019-01-23T08:01:55.662Z,96379.88
2019-01-23T08:05:00.195Z,96377.04
2019-01-23T08:08:05.120Z,96373.64
2019-01-23T08:11:09.586Z,96368.67
2019-01-23T08:14:15.196Z,96362.83
2019-01-23T08:17:19.668Z,96362.08
2019-01-23T08:20:26.920Z,96362.28
2019-01-23T08:23:31.637Z,96368.72
2019-01-23T08:26:36.370Z,96368.62
2019-01-23T08:29:41.100Z,96361.89
2019-01-23T08:32:45.832Z,96357.41
2019-01-23T08:35:50.275Z,96355.91
2019-01-23T08:38:54.727Z,96361.02
2019-01-23T08:41:59.511Z,96360.94
2019-01-23T08:45:05.349Z,96360.20
2019-01-23T08:48:10.158Z,96358.23
2019-01-23T08:51:15.144Z,96359.63
2019-01-23T08:54:19.876Z,96353.73
2019-01-23T08:57:24.604Z,96347.25
2019-01-23T09:00:29.334Z,96349.48
2019-01-23T09:03:34.066Z,96343.42
2019-01-23T09:06:38.797Z,96345.52
2019-01-23T09:09:43.250Z,96345.38
2019-01-23T09:12:47.701Z,96339.69
2019-01-23T09:15:52.147Z,96339.53
2019-01-23T09:18:56.900Z,96344.14
2019-01-23T09:22:01.337Z,96345.39
2019-01-23T09:25:10.165Z,96341.80
2019-01-23T09:28:14.879Z,96339.98
2019-01-23T09:31:24.033Z,96338.66
2019-01-23T09:34:39.201Z,96345.56
2019-01-23T09:37:57.544Z,96337.24
2019-01-23T09:41:26.254Z,96351.59
2019-01-23T09:44:56.773Z,96347.88
2019-01-23T09:48:20.645Z,96346.16
2019-01-23T09:52:18.622Z,96349.55
2019-01-23T09:55:23.365Z,96344.98
2019-01-23T09:58:27.821Z,96339.95
2019-01-23T10:01:32.265Z,96334.44
2019-01-23T10:04:36.725Z,96326.30
2019-01-23T10:07:41.149Z,96319.77
2019-01-23T10:10:45.591Z,96313.28
2019-01-23T10:13:50.027Z,96301.59
2019-01-23T10:16:54.721Z,96308.19
2019-01-23T10:19:59.166Z,96318.33
2019-01-23T10:23:03.679Z,96322.42
2019-01-23T10:26:08.507Z,96317.10
2019-01-23T10:29:13.244Z,96309.98
2019-01-23T10:32:17.976Z,96302.39
2019-01-23T10:35:22.706Z,96300.52
2019-01-23T10:38:27.151Z,96289.78
2019-01-23T10:41:31.588Z,96283.66
2019-01-23T10:44:36.034Z,96287.42
2019-01-23T10:47:40.456Z,96279.39
2019-01-23T10:50:44.896Z,96278.84
2019-01-23T10:53:49.336Z,96285.47
2019-01-23T10:56:54.176Z,96289.45
2019-01-23T10:59:58.616Z,96289.79
2019-01-23T11:03:09.840Z,96287.59
2019-01-23T11:06:09.803Z,96296.02
2019-01-23T11:09:14.607Z,96293.12
2019-01-23T11:12:19.068Z,96287.56
2019-01-23T11:15:23.797Z,96287.29
2019-01-23T11:18:28.234Z,96285.91
2019-01-23T11:21:32.952Z,96289.80
2019-01-23T11:24:37.676Z,96290.58
2019-01-23T11:27:42.351Z,96279.83
2019-01-23T11:30:46.861Z,96282.91
2019-01-23T11:33:51.563Z,96275.08
2019-01-23T11:36:56.296Z,96274.23
2019-01-23T11:40:00.743Z,96274.25
2019-01-23T11:43:05.754Z,96271.89
2019-01-23T11:46:10.366Z,96274.23
2019-01-23T11:49:14.821Z,96274.87
2019-01-23T11:52:19.254Z,96277.95
2019-01-23T11:55:23.768Z,96269.91
2019-01-23T11:58:28.201Z,96267.31
2019-01-23T12:01:32.907Z,96256.72
2019-01-23T12:04:37.639Z,96256.27
2019-01-23T12:07:42.245Z,96253.06
2019-01-23T12:10:46.680Z,96241.87
2019-01-23T12:13:51.117Z,96255.95
2019-01-23T12:16:55.927Z,96255.84
2019-01-23T12:20:00.385Z,96257.92
2019-01-23T12:23:05.288Z,96261.50
2019-01-23T12:26:10.140Z,96252.45
2019-01-23T12:29:14.572Z,96252.55
2019-01-23T12:32:19.292Z,96260.71
2019-01-23T12:35:23.742Z,96259.05
2019-01-23T12:38:28.166Z,96270.04
2019-01-23T12:41:32.874Z,96263.09
2019-01-23T12:44:37.379Z,96261.33
2019-01-23T12:47:42.131Z,96258.48
2019-01-23T12:50:46.867Z,96260.84
2019-01-23T12:53:51.295Z,96256.36
2019-01-23T12:56:55.730Z,96260.09
2019-01-23T13:00:05.104Z,96258.36
2019-01-23T13:03:06.809Z,96268.77
2019-01-23T13:06:11.542Z,96257.30
2019-01-23T13:09:16.270Z,96258.94
2019-01-23T13:12:20.706Z,96255.80
2019-01-23T13:15:29.096Z,96256.59
2019-01-23T13:18:33.541Z,96259.20
2019-01-23T13:21:38.264Z,96249.76
2019-01-23T13:24:42.995Z,96254.55
2019-01-23T13:27:49.005Z,96249.27
2019-01-23T13:30:53.440Z,96257.70
2019-01-23T13:33:57.878Z,96253.95
2019-01-23T13:37:02.315Z,96265.72
2019-01-23T13:40:23.236Z,96258.98
2019-01-23T13:43:27.680Z,96251.89
2019-01-23T13:46:32.392Z,96258.77
2019-01-23T13:49:36.826Z,96255.30
2019-01-23T13:52:41.439Z,96259.78
2019-01-23T13:55:45.868Z,96262.71
2019-01-23T13:58:50.597Z,96259.28
2019-01-23T14:01:56.449Z,96266.94
2019-01-23T14:05:01.152Z,96264.49
2019-01-23T14:08:07.303Z,96265.72
2019-01-23T14:11:12.082Z,96268.91
2019-01-23T14:14:16.524Z,96275.28
2019-01-23T14:17:21.241Z,96277.02
2019-01-23T14:20:25.673Z,96282.00
2019-01-23T14:23:30.392Z,96293.35
2019-01-23T14:26:34.825Z,96286.77
2019-01-23T14:29:39.271Z,96296.78
2019-01-23T14:32:43.712Z,96293.64
2019-01-23T14:35:48.170Z,96299.44
2019-01-23T14:38:53.016Z,96301.80
2019-01-23T14:41:57.447Z,96304.73
2019-01-23T14:45:02.294Z,96303.41
2019-01-23T14:48:06.779Z,96307.91
2019-01-23T14:51:11.282Z,96313.94
2019-01-23T14:54:15.719Z,96320.78
2019-01-23T14:57:20.153Z,96329.78
2019-01-23T15:00:30.713Z,96325.28
2019-01-23T15:03:35.153Z,96329.27
2019-01-23T15:06:39.896Z,96330.59
2019-01-23T15:09:44.644Z,96328.11
2019-01-23T15:12:49.238Z,96334.06
2019-01-23T15:15:53.982Z,96334.16
2019-01-23T15:18:59.201Z,96335.09
2019-01-23T15:22:03.699Z,96338.20
2019-01-23T15:25:09.560Z,96338.84
2019-01-23T15:28:13.999Z,96350.31
2019-01-23T15:31:18.428Z,96342.73
2019-01-23T15:34:23.187Z,96341.48
2019-01-23T15:37:27.917Z,96348.06
2019-01-23T15:40:34.970Z,96354.16
2019-01-23T15:43:39.414Z,96348.92
2019-01-23T15:46:43.846Z,96353.17
2019-01-23T15:49:48.580Z,96352.08
2019-01-23T15:52:53.016Z,96355.52
2019-01-23T15:55:57.454Z,96362.07
2019-01-23T15:59:02.164Z,96368.68
2019-01-23T16:02:06.661Z,96370.70
2019-01-23T16:05:11.628Z,96370.74
2019-01-23T16:08:16.055Z,96378.13
2019-01-23T16:11:20.496Z,96385.20
2019-01-23T16:14:25.203Z,96380.27
2019-01-23T16:17:29.633Z,96386.91
2019-01-23T16:20:34.147Z,96392.62
2019-01-23T16:23:38.576Z,96391.50
2019-01-23T16:26:43.083Z,96398.44
2019-01-23T16:29:47.533Z,96404.50
2019-01-23T16:32:52.252Z,96398.95
2019-01-23T16:35:56.697Z,96406.36
2019-01-23T16:39:01.411Z,96405.38
2019-01-23T16:42:06.142Z,96409.52
2019-01-23T16:45:17.530Z,96410.45
2019-01-23T16:48:21.970Z,96416.45
2019-01-23T16:51:26.417Z,96417.83
2019-01-23T16:54:30.866Z,96423.56
2019-01-23T16:57:35.548Z,96424.03
2019-01-23T17:00:40.123Z,96429.31
2019-01-23T17:03:45.091Z,96435.61
2019-01-23T17:06:49.528Z,96438.25
2019-01-23T17:09:53.968Z,96443.58
2019-01-23T17:12:58.876Z,96445.41
2019-01-23T17:16:03.394Z,96450.91
2019-01-23T17:19:07.821Z,96450.94
2019-01-23T17:22:12.264Z,96457.53
2019-01-23T17:25:16.844Z,96459.39
2019-01-23T17:28:21.288Z,96467.85
2019-01-23T17:31:26.030Z,96470.52
2019-01-23T17:34:30.464Z,96472.90
2019-01-23T17:37:35.198Z,96469.38
2019-01-23T17:40:39.654Z,96479.66
2019-01-23T17:43:44.358Z,96482.06
2019-01-23T17:46:49.376Z,96485.36
2019-01-23T17:49:53.807Z,96482.35
2019-01-23T17:52:58.281Z,96490.37
2019-01-23T17:56:02.737Z,96495.48
2019-01-23T17:59:07.752Z,96491.75
2019-01-23T18:02:12.515Z,96492.23
2019-01-23T18:05:17.245Z,96500.17
2019-01-23T18:08:21.683Z,96496.51
2019-01-23T18:11:26.407Z,96509.33
2019-01-23T18:14:30.836Z,96500.73
2019-01-23T18:17:35.277Z,96500.19
2019-01-23T18:20:39.978Z,96508.17
2019-01-23T18:23:44.814Z,96507.78
2019-01-23T18:26:49.545Z,96519.11
2019-01-23T18:29:54.276Z,96522.61
2019-01-23T18:33:00.277Z,96522.83
2019-01-23T18:36:36.506Z,96522.03
2019-01-23T18:40:00.246Z,96526.25
2019-01-23T18:43:36.341Z,96530.17
2019-01-23T18:47:11.121Z,96532.55
2019-01-23T18:50:37.935Z,96531.17
2019-01-23T18:53:42.378Z,96530.81
2019-01-23T18:56:47.083Z,96543.70
2019-01-23T18:59:51.917Z,96545.64
2019-01-23T19:02:56.759Z,96551.06
2019-01-23T19:06:01.197Z,96552.93
2019-01-23T19:09:09.102Z,96558.50
2019-01-23T19:12:13.630Z,96562.38
2019-01-23T19:15:21.119Z,96569.23
2019-01-23T19:18:25.868Z,96574.05
2019-01-23T19:21:30.308Z,96577.16
2019-01-23T19:24:36.542Z,96579.50
2019-01-23T19:27:41.603Z,96579.92
2019-01-23T19:30:46.411Z,96579.76
2019-01-23T19:33:51.245Z,96584.38
2019-01-23T19:36:55.724Z,96592.68
2019-01-23T19:40:00.488Z,96583.06
2019-01-23T19:43:06.872Z,96586.84
2019-01-23T19:46:11.496Z,96590.84
2019-01-23T19:49:16.316Z,96592.84
2019-01-23T19:52:21.107Z,96593.91
2019-01-23T19:55:25.532Z,96598.84
2019-01-23T19:58:29.966Z,96595.39
2019-01-23T20:01:34.723Z,96602.49
2019-01-23T20:04:39.457Z,96605.98
2019-01-23T20:07:44.493Z,96610.73
2019-01-23T20:10:48.927Z,96614.78
2019-01-23T20:13:53.645Z,96621.48
2019-01-23T20:16:58.377Z,96627.91
2019-01-23T20:20:03.231Z,96621.23
2019-01-23T20:23:07.943Z,96632.31
2019-01-23T20:26:12.417Z,96630.64
2019-01-23T20:29:16.873Z,96633.06
2019-01-23T20:32:21.314Z,96635.16
2019-01-23T20:35:25.769Z,96634.22
2019-01-23T20:38:30.473Z,96637.76
2019-01-23T20:41:34.908Z,96643.46
2019-01-23T20:44:39.625Z,96645.55
2019-01-23T20:47:44.060Z,96653.82
2019-01-23T20:50:48.509Z,96650.72
2019-01-23T20:53:52.969Z,96666.08
2019-01-23T20:56:57.418Z,96658.85
2019-01-23T21:00:02.155Z,96662.70
2019-01-23T21:03:06.685Z,96660.97
2019-01-23T21:06:11.673Z,96672.00
2019-01-23T21:09:16.171Z,96672.31
2019-01-23T21:12:20.636Z,96682.29
2019-01-23T21:15:30.642Z,96680.91
2019-01-23T21:18:35.350Z,96680.67
2019-01-23T21:21:40.079Z,96682.09
2019-01-23T21:24:44.812Z,96681.00
2019-01-23T21:27:49.546Z,96683.74
2019-01-23T21:30:54.000Z,96687.98
2019-01-23T21:33:58.441Z,96695.39
2019-01-23T21:37:03.227Z,96697.41
2019-01-23T21:40:21.136Z,96700.30
2019-01-23T21:43:25.578Z,96702.13
2019-01-23T21:46:30.031Z,96708.16
2019-01-23T21:49:34.742Z,96703.37
2019-01-23T21:52:39.192Z,96706.49
2019-01-23T21:55:43.647Z,96712.22
2019-01-23T21:58:48.088Z,96716.36
2019-01-23T22:01:52.542Z,96716.41
2019-01-23T22:04:57.000Z,96717.36
2019-01-23T22:08:01.697Z,96716.84
2019-01-23T22:11:06.424Z,96716.09
2019-01-23T22:14:10.866Z,96715.83
2019-01-23T22:17:15.322Z,96718.89
2019-01-23T22:20:21.987Z,96717.04
2019-01-23T22:23:26.779Z,96723.43
2019-01-23T22:26:31.229Z,96733.30
2019-01-23T22:29:35.941Z,96736.49
2019-01-23T22:32:40.662Z,96740.63
2019-01-23T22:35:45.110Z,96745.63
2019-01-23T22:38:49.553Z,96755.64
2019-01-23T22:41:54.345Z,96760.59
2019-01-23T22:44:59.076Z,96763.59
2019-01-23T22:48:03.699Z,96767.59
2019-01-23T22:51:08.147Z,96771.81
2019-01-23T22:54:12.587Z,96770.69
2019-01-23T22:57:17.065Z,96778.13
2019-01-23T23:00:39.760Z,96774.55
2019-01-23T23:03:44.660Z,96783.45
2019-01-23T23:06:49.396Z,96783.89
2019-01-23T23:09:53.838Z,96780.14
2019-01-23T23:12:58.551Z,96790.11
2019-01-23T23:16:02.994Z,96792.24
2019-01-23T23:19:07.443Z,96798.27
2019-01-23T23:22:11.887Z,96799.61
2019-01-23T23:25:16.467Z,96810.95
2019-01-23T23:28:25.922Z,96813.92
2019-01-23T23:31:27.100Z,96817.14
2019-01-23T23:34:31.547Z,96819.45
2019-01-23T23:37:36.082Z,96826.66
2019-01-23T23:40:40.819Z,96828.48
2019-01-23T23:43:45.549Z,96824.12
2019-01-23T23:46:50.283Z,96831.08
2019-01-23T23:49:55.034Z,96839.91
2019-01-23T23:52:59.482Z,96843.45
2019-01-23T23:56:03.927Z,96850.42
2019-01-23T23:59:08.691Z,96857.98
